createdAt,value
2018-08-11T00:01:13.508Z,99004.78
2018-08-11T00:03:42.256Z,99005.44
2018-08-11T00:06:10.718Z,99004.58
2018-08-11T00:08:39.188Z,99010.72
2018-08-11T00:11:07.687Z,99012.23
2018-08-11T00:13:36.242Z,99007.88
2018-08-11T00:16:04.673Z,99006.92
2018-08-11T00:18:33.368Z,99006.12
2018-08-11T00:21:01.868Z,99000.08
2018-08-11T00:23:31.431Z,99004.52
2018-08-11T00:25:59.908Z,99005.55
2018-08-11T00:28:28.366Z,99005.22
2018-08-11T00:30:56.858Z,99012.23
2018-08-11T00:33:25.355Z,99008.95
2018-08-11T00:35:53.910Z,99016.23
2018-08-11T00:38:22.311Z,99023.16
2018-08-11T00:40:50.775Z,99022.44
2018-08-11T00:43:19.293Z,99025.14
2018-08-11T00:45:47.784Z,99026.80
2018-08-11T00:48:16.303Z,99027.37
2018-08-11T00:50:44.767Z,99026.22
2018-08-11T00:53:13.374Z,99019.91
2018-08-11T00:55:41.833Z,99017.70
2018-08-11T00:58:10.307Z,99023.89
2018-08-11T01:00:38.775Z,99015.66
2018-08-11T01:03:07.320Z,99012.72
2018-08-11T01:05:35.908Z,99008.09
2018-08-11T01:08:04.395Z,98995.80
2018-08-11T01:10:33.161Z,98988.84
2018-08-11T01:13:01.609Z,98991.58
2018-08-11T01:15:30.090Z,98990.14
2018-08-11T01:17:58.532Z,98993.36
2018-08-11T01:20:26.970Z,98990.47
2018-08-11T01:22:55.441Z,98982.25
2018-08-11T01:25:23.915Z,98978.20
2018-08-11T01:27:52.450Z,98978.78
2018-08-11T01:30:22.008Z,98990.05
2018-08-11T01:32:50.635Z,98986.04
2018-08-11T01:35:19.396Z,98985.20
2018-08-11T01:37:47.945Z,98977.90
2018-08-11T01:40:17.226Z,98982.58
2018-08-11T01:42:47.115Z,98984.06
2018-08-11T01:45:16.095Z,98981.04
2018-08-11T01:47:45.119Z,98983.41
2018-08-11T01:50:14.749Z,98982.00
2018-08-11T01:52:44.422Z,98981.08
2018-08-11T01:55:14.788Z,98969.70
2018-08-11T01:57:43.620Z,98973.91
2018-08-11T02:00:13.792Z,98951.94
2018-08-11T02:02:42.455Z,98965.19
2018-08-11T02:05:12.211Z,98961.39
2018-08-11T02:07:42.295Z,98961.96
2018-08-11T02:10:12.941Z,98961.53
2018-08-11T02:12:41.458Z,98952.61
2018-08-11T02:15:12.036Z,98949.55
2018-08-11T02:17:40.646Z,98947.22
2018-08-11T02:20:12.507Z,98941.83
2018-08-11T02:22:41.820Z,98934.82
2018-08-11T02:25:10.788Z,98933.22
2018-08-11T02:27:40.074Z,98934.48
2018-08-11T02:30:11.074Z,98935.11
2018-08-11T02:32:39.722Z,98932.45
2018-08-11T02:35:09.131Z,98936.59
2018-08-11T02:37:37.577Z,98938.88
2018-08-11T02:40:07.781Z,98937.41
2018-08-11T02:42:36.308Z,98942.53
2018-08-11T02:45:05.548Z,98943.23
2018-08-11T02:47:34.253Z,98941.20
2018-08-11T02:50:02.746Z,98932.19
2018-08-11T02:52:31.212Z,98936.16
2018-08-11T02:54:59.660Z,98940.95
2018-08-11T02:57:28.395Z,98938.73
2018-08-11T02:59:56.852Z,98937.03
2018-08-11T03:02:25.361Z,98927.91
2018-08-11T03:04:53.804Z,98929.76
2018-08-11T03:07:22.236Z,98936.81
2018-08-11T03:09:50.715Z,98930.32
2018-08-11T03:12:19.168Z,98933.94
2018-08-11T03:14:48.127Z,98939.17
2018-08-11T03:17:16.616Z,98941.17
2018-08-11T03:19:45.056Z,98941.65
2018-08-11T03:22:13.476Z,98945.89
2018-08-11T03:24:41.934Z,98939.47
2018-08-11T03:27:10.502Z,98938.17
2018-08-11T03:29:38.970Z,98945.20
2018-08-11T03:32:07.484Z,98945.97
2018-08-11T03:34:35.986Z,98948.94
2018-08-11T03:37:04.853Z,98948.59
2018-08-11T03:39:33.382Z,98948.45
2018-08-11T03:42:01.809Z,98945.62
2018-08-11T03:44:30.262Z,98944.05
2018-08-11T03:46:58.859Z,98945.41
2018-08-11T03:49:27.339Z,98945.80
2018-08-11T03:51:55.794Z,98948.12
2018-08-11T03:54:24.259Z,98943.73
2018-08-11T03:56:52.711Z,98941.86
2018-08-11T03:59:22.843Z,98945.62
2018-08-11T04:01:51.375Z,98944.78
2018-08-11T04:04:20.031Z,98937.86
2018-08-11T04:06:48.664Z,98944.81
2018-08-11T04:09:17.115Z,98945.44
2018-08-11T04:11:46.116Z,98952.47
2018-08-11T04:14:14.717Z,98952.26
2018-08-11T04:16:43.138Z,98939.91
2018-08-11T04:19:11.948Z,98943.02
2018-08-11T04:21:40.415Z,98941.86
2018-08-11T04:24:09.406Z,98942.09
2018-08-11T04:26:37.858Z,98947.66
2018-08-11T04:29:06.333Z,98953.82
2018-08-11T04:31:35.154Z,98950.06
2018-08-11T04:34:03.848Z,98948.51
2018-08-11T04:36:32.771Z,98952.44
2018-08-11T04:39:01.235Z,98948.22
2018-08-11T04:41:29.911Z,98949.24
2018-08-11T04:43:58.374Z,98954.86
2018-08-11T04:46:26.814Z,98951.16
2018-08-11T04:48:55.604Z,98958.84
2018-08-11T04:51:24.022Z,98952.95
2018-08-11T04:53:52.484Z,98956.34
2018-08-11T04:56:21.268Z,98955.08
2018-08-11T04:58:49.691Z,98950.17
2018-08-11T05:01:18.131Z,98944.22
2018-08-11T05:03:46.692Z,98950.36
2018-08-11T05:06:15.123Z,98952.84
2018-08-11T05:08:43.723Z,98957.16
2018-08-11T05:11:12.563Z,98965.34
2018-08-11T05:13:41.268Z,98960.75
2018-08-11T05:16:09.730Z,98968.52
2018-08-11T05:18:38.179Z,98959.17
2018-08-11T05:21:06.634Z,98958.58
2018-08-11T05:23:35.047Z,98963.86
2018-08-11T05:26:03.501Z,98960.09
2018-08-11T05:28:31.915Z,98965.45
2018-08-11T05:31:00.529Z,98960.58
2018-08-11T05:33:28.979Z,98963.97
2018-08-11T05:35:57.435Z,98965.02
2018-08-11T05:38:25.947Z,98966.79
2018-08-11T05:40:54.380Z,98965.91
2018-08-11T05:43:23.374Z,98970.39
2018-08-11T05:45:51.949Z,98976.31
2018-08-11T05:48:20.396Z,98978.89
2018-08-11T05:50:48.853Z,98978.48
2018-08-11T05:53:17.563Z,98982.86
2018-08-11T05:56:16.827Z,98981.40
2018-08-11T05:58:45.332Z,98982.72
2018-08-11T06:01:13.755Z,98986.03
2018-08-11T06:03:42.535Z,98985.46
2018-08-11T06:06:10.965Z,98980.27
2018-08-11T06:08:39.767Z,98979.26
2018-08-11T06:11:08.194Z,98972.77
2018-08-11T06:13:36.673Z,98977.38
2018-08-11T06:16:05.133Z,98981.24
2018-08-11T06:18:33.712Z,98984.21
2018-08-11T06:21:02.218Z,98987.55
2018-08-11T06:23:30.880Z,98986.48
2018-08-11T06:25:59.349Z,98986.11
2018-08-11T06:28:27.799Z,98986.58
2018-08-11T06:30:56.238Z,98989.34
2018-08-11T06:33:24.929Z,98993.13
2018-08-11T06:35:53.434Z,98995.95
2018-08-11T06:38:21.891Z,98993.20
2018-08-11T06:40:50.555Z,98989.84
2018-08-11T06:43:18.830Z,98996.00
2018-08-11T06:45:47.634Z,98995.42
2018-08-11T06:48:16.079Z,98992.23
2018-08-11T06:50:44.524Z,98993.23
2018-08-11T06:53:12.995Z,98995.58
2018-08-11T06:55:42.239Z,98996.59
2018-08-11T06:58:10.599Z,98999.85
2018-08-11T07:00:39.297Z,99000.38
2018-08-11T07:03:08.021Z,98996.39
2018-08-11T07:05:36.483Z,98994.74
2018-08-11T07:08:04.929Z,98997.03
2018-08-11T07:10:33.412Z,99000.55
2018-08-11T07:13:01.899Z,99000.02
2018-08-11T07:15:30.344Z,98991.55
2018-08-11T07:17:58.748Z,98993.30
2018-08-11T07:20:27.269Z,98995.37
2018-08-11T07:22:55.719Z,99000.28
2018-08-11T07:25:24.200Z,98996.01
2018-08-11T07:27:52.666Z,98997.28
2018-08-11T07:30:21.682Z,98997.95
2018-08-11T07:32:50.206Z,98997.45
2018-08-11T07:35:19.085Z,98997.59
2018-08-11T07:37:47.503Z,98996.18
2018-08-11T07:40:16.652Z,98996.19
2018-08-11T07:42:45.099Z,98998.55
2018-08-11T07:45:13.536Z,98991.95
2018-08-11T07:47:42.038Z,98995.63
2018-08-11T07:50:10.469Z,98996.61
2018-08-11T07:52:40.558Z,99006.47
2018-08-11T07:55:09.003Z,99001.30
2018-08-11T07:57:37.442Z,99005.13
2018-08-11T08:00:08.000Z,98999.95
2018-08-11T08:02:36.430Z,99009.50
2018-08-11T08:05:05.360Z,99005.08
2018-08-11T08:07:33.807Z,99003.66
2018-08-11T08:10:02.254Z,99002.62
2018-08-11T08:12:30.691Z,99013.27
2018-08-11T08:14:59.097Z,99011.71
2018-08-11T08:17:27.742Z,99001.05
2018-08-11T08:19:56.231Z,98994.70
2018-08-11T08:22:25.048Z,99001.90
2018-08-11T08:24:53.532Z,98996.03
2018-08-11T08:27:21.998Z,98991.43
2018-08-11T08:29:50.458Z,98990.28
2018-08-11T08:32:18.842Z,98987.77
2018-08-11T08:34:47.371Z,98984.00
2018-08-11T08:37:15.826Z,98984.92
2018-08-11T08:39:44.257Z,98988.05
2018-08-11T08:42:12.702Z,98985.55
2018-08-11T08:44:41.307Z,98981.66
2018-08-11T08:47:09.756Z,98978.95
2018-08-11T08:49:38.166Z,98979.66
2018-08-11T08:52:06.716Z,98976.04
2018-08-11T08:54:35.161Z,98978.81
2018-08-11T08:57:03.613Z,98976.91
2018-08-11T08:59:32.376Z,98977.85
2018-08-11T09:02:00.803Z,98978.95
2018-08-11T09:04:29.253Z,98967.61
2018-08-11T09:06:57.719Z,98971.22
2018-08-11T09:09:26.144Z,98968.27
2018-08-11T09:11:54.624Z,98967.36
2018-08-11T09:14:23.020Z,98959.05
2018-08-11T09:16:51.459Z,98951.63
2018-08-11T09:19:19.926Z,98947.02
2018-08-11T09:21:48.349Z,98952.08
2018-08-11T09:24:17.092Z,98951.60
2018-08-11T09:26:45.686Z,98946.23
2018-08-11T09:29:14.149Z,98952.28
2018-08-11T09:31:42.638Z,98945.09
2018-08-11T09:34:11.068Z,98938.56
2018-08-11T09:36:39.517Z,98938.22
2018-08-11T09:39:09.663Z,98942.95
2018-08-11T09:41:38.142Z,98938.23
2018-08-11T09:44:07.156Z,98942.77
2018-08-11T09:46:35.763Z,98928.23
2018-08-11T09:49:04.228Z,98930.02
2018-08-11T09:51:32.695Z,98940.25
2018-08-11T09:54:01.338Z,98938.76
2018-08-11T09:56:29.823Z,98933.36
2018-08-11T09:58:58.225Z,98940.38
2018-08-11T10:01:31.855Z,98942.06
2018-08-11T10:04:00.261Z,98939.53
2018-08-11T10:06:28.717Z,98935.87
2018-08-11T10:08:57.157Z,98923.30
2018-08-11T10:11:25.868Z,98921.61
2018-08-11T10:13:54.309Z,98923.80
2018-08-11T10:16:22.871Z,98917.36
2018-08-11T10:18:51.355Z,98921.73
2018-08-11T10:21:19.779Z,98924.10
2018-08-11T10:23:48.239Z,98920.19
2018-08-11T10:26:16.715Z,98923.19
2018-08-11T10:28:45.340Z,98912.08
2018-08-11T10:31:13.787Z,98908.80
2018-08-11T10:33:42.490Z,98912.17
2018-08-11T10:36:11.206Z,98914.45
2018-08-11T10:38:39.938Z,98901.86
2018-08-11T10:41:08.397Z,98904.68
2018-08-11T10:43:36.847Z,98902.94
2018-08-11T10:46:05.344Z,98900.97
2018-08-11T10:48:33.806Z,98897.61
2018-08-11T10:51:02.211Z,98908.23
2018-08-11T10:53:30.933Z,98896.34
2018-08-11T10:55:59.419Z,98891.39
2018-08-11T10:58:27.876Z,98891.78
2018-08-11T11:00:56.292Z,98885.11
2018-08-11T11:03:24.754Z,98892.34
2018-08-11T11:05:53.191Z,98895.91
2018-08-11T11:08:21.649Z,98889.48
2018-08-11T11:10:50.106Z,98879.03
2018-08-11T11:13:18.532Z,98880.59
2018-08-11T11:15:46.979Z,98877.53
2018-08-11T11:18:15.543Z,98870.96
2018-08-11T11:20:44.008Z,98884.37
2018-08-11T11:23:12.452Z,98871.53
2018-08-11T11:25:40.921Z,98869.23
2018-08-11T11:28:09.304Z,98860.75
2018-08-11T11:30:37.735Z,98865.72
2018-08-11T11:33:06.287Z,98851.72
2018-08-11T11:35:34.770Z,98851.86
2018-08-11T11:38:03.401Z,98857.67
2018-08-11T11:40:31.840Z,98861.67
2018-08-11T11:43:00.544Z,98853.96
2018-08-11T11:45:28.982Z,98851.65
2018-08-11T11:47:57.687Z,98848.22
2018-08-11T11:50:26.186Z,98844.69
2018-08-11T11:52:54.965Z,98847.56
2018-08-11T11:55:23.651Z,98843.75
2018-08-11T11:57:52.093Z,98850.37
2018-08-11T12:00:20.503Z,98847.95
2018-08-11T12:02:48.984Z,98847.12
2018-08-11T12:05:17.397Z,98836.86
2018-08-11T12:07:45.795Z,98844.67
2018-08-11T12:10:14.267Z,98846.77
2018-08-11T12:12:42.714Z,98835.27
2018-08-11T12:15:11.190Z,98840.08
2018-08-11T12:17:39.617Z,98844.90
2018-08-11T12:20:08.101Z,98836.10
2018-08-11T12:22:36.545Z,98836.38
2018-08-11T12:25:05.507Z,98829.47
2018-08-11T12:27:33.974Z,98838.14
2018-08-11T12:30:02.488Z,98827.79
2018-08-11T12:32:31.236Z,98824.75
2018-08-11T12:35:00.155Z,98819.52
2018-08-11T12:37:28.864Z,98811.12
2018-08-11T12:39:57.347Z,98811.64
2018-08-11T12:42:25.779Z,98820.06
2018-08-11T12:44:54.195Z,98811.17
2018-08-11T12:47:22.680Z,98804.11
2018-08-11T12:49:51.142Z,98796.53
2018-08-11T12:52:19.568Z,98808.89
2018-08-11T12:54:47.990Z,98798.66
2018-08-11T12:57:16.479Z,98803.82
2018-08-11T12:59:44.906Z,98802.19
2018-08-11T13:02:13.435Z,98800.31
2018-08-11T13:04:42.098Z,98793.41
2018-08-11T13:07:10.560Z,98794.13
2018-08-11T13:09:38.995Z,98792.84
2018-08-11T13:12:07.578Z,98795.73
2018-08-11T13:14:36.272Z,98788.73
2018-08-11T13:17:04.848Z,98775.31
2018-08-11T13:19:33.243Z,98768.38
2018-08-11T13:22:01.687Z,98772.45
2018-08-11T13:24:30.178Z,98775.48
2018-08-11T13:26:58.623Z,98768.97
2018-08-11T13:29:27.296Z,98771.33
2018-08-11T13:31:55.754Z,98768.05
2018-08-11T13:34:24.226Z,98769.61
2018-08-11T13:36:52.856Z,98760.92
2018-08-11T13:39:21.423Z,98754.73
2018-08-11T13:41:50.722Z,98757.38
2018-08-11T13:44:20.143Z,98748.88
2018-08-11T13:46:48.560Z,98744.89
2018-08-11T13:49:17.012Z,98747.84
2018-08-11T13:51:45.477Z,98746.85
2018-08-11T13:54:13.975Z,98735.67
2018-08-11T13:56:42.384Z,98748.84
2018-08-11T13:59:10.824Z,98749.69
2018-08-11T14:01:39.260Z,98745.39
2018-08-11T14:04:08.040Z,98740.72
2018-08-11T14:06:36.588Z,98738.88
2018-08-11T14:09:07.208Z,98744.23
2018-08-11T14:11:35.820Z,98741.39
2018-08-11T14:14:04.479Z,98736.97
2018-08-11T14:16:32.876Z,98740.34
2018-08-11T14:19:01.360Z,98732.56
2018-08-11T14:21:29.848Z,98729.97
2018-08-11T14:23:58.315Z,98725.59
2018-08-11T14:26:26.745Z,98723.97
2018-08-11T14:28:55.375Z,98712.86
2018-08-11T14:31:23.824Z,98710.63
2018-08-11T14:33:52.526Z,98714.39
2018-08-11T14:36:21.127Z,98710.19
2018-08-11T14:38:49.903Z,98709.88
2018-08-11T14:41:18.305Z,98714.49
2018-08-11T14:43:46.779Z,98706.44
2018-08-11T14:46:15.235Z,98705.13
2018-08-11T14:48:43.727Z,98701.60
2018-08-11T14:51:12.440Z,98700.17
2018-08-11T14:53:40.860Z,98694.42
2018-08-11T14:56:09.599Z,98695.64
2018-08-11T14:58:38.071Z,98699.73
2018-08-11T15:01:06.846Z,98699.94
2018-08-11T15:03:35.518Z,98701.33
2018-08-11T15:06:03.977Z,98695.63
2018-08-11T15:08:32.536Z,98692.06
2018-08-11T15:11:00.967Z,98694.86
2018-08-11T15:13:29.374Z,98712.23
2018-08-11T15:15:57.855Z,98703.37
2018-08-11T15:18:26.239Z,98703.89
2018-08-11T15:20:54.823Z,98702.66
2018-08-11T15:23:23.244Z,98694.14
2018-08-11T15:25:51.718Z,98704.14
2018-08-11T15:28:20.399Z,98698.11
2018-08-11T15:30:48.832Z,98693.88
2018-08-11T15:33:17.365Z,98692.44
2018-08-11T15:35:45.903Z,98688.71
2018-08-11T15:38:14.303Z,98677.58
2018-08-11T15:40:42.744Z,98683.93
2018-08-11T15:43:11.443Z,98691.80
2018-08-11T15:45:39.908Z,98687.05
2018-08-11T15:48:08.428Z,98684.67
2018-08-11T15:50:36.867Z,98689.77
2018-08-11T15:53:05.896Z,98682.65
2018-08-11T15:55:34.331Z,98676.87
2018-08-11T15:58:02.809Z,98682.97
2018-08-11T16:00:31.219Z,98686.03
2018-08-11T16:02:59.706Z,98687.37
2018-08-11T16:05:28.260Z,98689.23
2018-08-11T16:07:56.790Z,98685.08
2018-08-11T16:10:25.290Z,98688.21
2018-08-11T16:12:53.707Z,98686.80
2018-08-11T16:15:22.273Z,98688.48
2018-08-11T16:17:50.960Z,98690.22
2018-08-11T16:20:19.406Z,98700.41
2018-08-11T16:22:47.899Z,98698.80
2018-08-11T16:25:16.591Z,98695.98
2018-08-11T16:27:45.063Z,98701.48
2018-08-11T16:30:14.350Z,98696.45
2018-08-11T16:32:42.896Z,98694.17
2018-08-11T16:35:11.384Z,98701.11
2018-08-11T16:37:40.092Z,98692.78
2018-08-11T16:40:09.069Z,98690.17
2018-08-11T16:42:37.860Z,98698.75
2018-08-11T16:45:06.537Z,98704.47
2018-08-11T16:47:35.247Z,98696.95
2018-08-11T16:50:03.684Z,98698.42
2018-08-11T16:52:32.119Z,98694.91
2018-08-11T16:55:00.586Z,98690.11
2018-08-11T16:57:29.066Z,98694.42
2018-08-11T16:59:57.763Z,98690.72
2018-08-11T17:02:26.469Z,98699.34
2018-08-11T17:04:54.919Z,98696.14
2018-08-11T17:07:23.369Z,98695.19
2018-08-11T17:09:51.917Z,98697.40
2018-08-11T17:12:20.390Z,98698.23
2018-08-11T17:14:48.944Z,98703.61
2018-08-11T17:17:17.415Z,98694.50
2018-08-11T17:19:45.844Z,98705.41
2018-08-11T17:22:14.301Z,98704.96
2018-08-11T17:24:42.795Z,98703.22
2018-08-11T17:27:11.256Z,98699.30
2018-08-11T17:29:39.638Z,98702.53
2018-08-11T17:32:08.386Z,98708.25
2018-08-11T17:34:36.821Z,98706.27
2018-08-11T17:37:05.228Z,98704.64
2018-08-11T17:39:33.704Z,98697.86
2018-08-11T17:42:02.089Z,98702.38
2018-08-11T17:44:30.537Z,98707.63
2018-08-11T17:46:59.158Z,98703.69
2018-08-11T17:49:27.615Z,98701.27
2018-08-11T17:51:56.307Z,98709.70
2018-08-11T17:54:24.671Z,98702.00
2018-08-11T17:56:53.079Z,98701.14
2018-08-11T17:59:21.660Z,98701.59
2018-08-11T18:01:50.083Z,98705.80
2018-08-11T18:04:18.590Z,98711.13
2018-08-11T18:06:47.007Z,98719.13
2018-08-11T18:09:15.430Z,98724.89
2018-08-11T18:11:43.891Z,98724.41
2018-08-11T18:14:12.348Z,98720.20
2018-08-11T18:16:40.805Z,98731.48
2018-08-11T18:19:09.299Z,98731.13
2018-08-11T18:21:37.813Z,98727.53
2018-08-11T18:24:06.816Z,98734.03
2018-08-11T18:26:35.211Z,98740.12
2018-08-11T18:29:03.650Z,98741.51
2018-08-11T18:31:32.095Z,98735.87
2018-08-11T18:34:00.524Z,98739.31
2018-08-11T18:36:29.219Z,98742.05
2018-08-11T18:38:57.710Z,98745.70
2018-08-11T18:41:26.155Z,98746.02
2018-08-11T18:43:54.622Z,98742.66
2018-08-11T18:46:23.042Z,98740.89
2018-08-11T18:48:51.473Z,98748.36
2018-08-11T18:51:19.868Z,98754.27
2018-08-11T18:53:48.291Z,98749.91
2018-08-11T18:56:16.863Z,98747.22
2018-08-11T18:58:45.610Z,98753.61
2018-08-11T19:01:14.007Z,98695.72
2018-08-11T19:03:42.470Z,98757.82
2018-08-11T19:06:11.623Z,98755.30
2018-08-11T19:08:40.070Z,98759.08
2018-08-11T19:11:08.616Z,98766.45
2018-08-11T19:13:37.439Z,98767.91
2018-08-11T19:16:06.424Z,98770.10
2018-08-11T19:18:35.027Z,98769.77
2018-08-11T19:21:03.491Z,98769.62
2018-08-11T19:23:31.993Z,98712.34
2018-08-11T19:26:00.445Z,98769.31
2018-08-11T19:28:28.936Z,98772.14
2018-08-11T19:30:57.399Z,98775.48
2018-08-11T19:33:25.860Z,98773.80
2018-08-11T19:35:54.308Z,98769.93
2018-08-11T19:38:22.727Z,98779.48
2018-08-11T19:40:51.320Z,98773.44
2018-08-11T19:43:19.815Z,98777.59
2018-08-11T19:45:48.303Z,98774.10
2018-08-11T19:48:16.782Z,98782.29
2018-08-11T19:50:45.423Z,98787.75
2018-08-11T19:53:13.844Z,98786.08
2018-08-11T19:55:42.303Z,98787.02
2018-08-11T19:58:10.751Z,98786.56
2018-08-11T20:00:39.244Z,98789.63
2018-08-11T20:03:07.722Z,98787.41
2018-08-11T20:05:36.295Z,98786.98
2018-08-11T20:08:04.869Z,98787.19
2018-08-11T20:10:33.297Z,98791.00
2018-08-11T20:13:01.826Z,98793.91
2018-08-11T20:15:30.309Z,98795.67
2018-08-11T20:17:58.742Z,98792.48
2018-08-11T20:20:27.217Z,98794.16
2018-08-11T20:22:55.623Z,98795.75
2018-08-11T20:25:24.545Z,98796.84
2018-08-11T20:27:52.880Z,98776.34
2018-08-11T20:30:21.295Z,98797.28
2018-08-11T20:32:49.966Z,98806.63
2018-08-11T20:35:18.455Z,98805.68
2018-08-11T20:37:46.965Z,98806.03
2018-08-11T20:40:15.453Z,98803.19
2018-08-11T20:42:43.903Z,98802.39
2018-08-11T20:45:12.385Z,98806.41
2018-08-11T20:47:41.151Z,98812.55
2018-08-11T20:50:10.041Z,98819.77
2018-08-11T20:52:38.504Z,98820.84
2018-08-11T20:55:07.979Z,98817.38
2018-08-11T20:57:36.412Z,98826.93
2018-08-11T21:00:09.008Z,98828.14
2018-08-11T21:02:37.700Z,98832.67
2018-08-11T21:05:08.994Z,98836.45
2018-08-11T21:07:38.575Z,98831.23
2018-08-11T21:10:09.546Z,98835.95
2018-08-11T21:12:38.048Z,98837.81
2018-08-11T21:15:07.332Z,98839.92
2018-08-11T21:17:36.088Z,98836.89
2018-08-11T21:20:07.251Z,98827.98
2018-08-11T21:22:36.167Z,98840.77
2018-08-11T21:25:05.154Z,98836.34
2018-08-11T21:27:33.617Z,98841.11
2018-08-11T21:30:02.622Z,98845.52
2018-08-11T21:32:31.300Z,98839.64
2018-08-11T21:34:59.736Z,98835.77
2018-08-11T21:37:28.463Z,98836.86
2018-08-11T21:39:56.887Z,98823.91
2018-08-11T21:42:25.336Z,98837.78
2018-08-11T21:44:54.055Z,98836.21
2018-08-11T21:47:22.732Z,98839.62
2018-08-11T21:49:51.508Z,98838.47
2018-08-11T21:52:20.000Z,98833.60
2018-08-11T21:54:48.478Z,98823.83
2018-08-11T21:57:17.023Z,98826.09
2018-08-11T21:59:45.448Z,98829.41
2018-08-11T22:02:14.120Z,98827.03
2018-08-11T22:04:42.568Z,98823.64
2018-08-11T22:07:11.045Z,98829.98
2018-08-11T22:09:39.507Z,98832.24
2018-08-11T22:12:07.979Z,98827.97
2018-08-11T22:14:36.531Z,98829.02
2018-08-11T22:17:04.984Z,98822.73
2018-08-11T22:19:33.447Z,98820.99
2018-08-11T22:22:01.911Z,98827.52
2018-08-11T22:24:30.615Z,98834.80
2018-08-11T22:26:59.076Z,98821.07
2018-08-11T22:29:27.525Z,98827.57
2018-08-11T22:31:56.209Z,98822.00
2018-08-11T22:34:24.629Z,98817.13
2018-08-11T22:36:53.497Z,98817.83
2018-08-11T22:39:21.954Z,98819.57
2018-08-11T22:41:50.352Z,98814.75
2018-08-11T22:44:18.809Z,98811.81
2018-08-11T22:46:47.591Z,98812.71
2018-08-11T22:49:16.101Z,98810.63
2018-08-11T22:51:44.559Z,98812.31
2018-08-11T22:54:13.172Z,98810.83
2018-08-11T22:56:41.630Z,98810.11
2018-08-11T22:59:10.226Z,98812.30
2018-08-11T23:01:40.215Z,98804.10
2018-08-11T23:04:08.907Z,98806.34
2018-08-11T23:06:37.452Z,98811.94
2018-08-11T23:09:07.551Z,98808.53
2018-08-11T23:11:36.044Z,98809.44
2018-08-11T23:14:04.722Z,98806.39
2018-08-11T23:16:33.189Z,98813.58
2018-08-11T23:19:01.699Z,98810.56
2018-08-11T23:21:30.163Z,98808.05
2018-08-11T23:23:58.650Z,98809.17
2018-08-11T23:26:27.252Z,98811.70
2018-08-11T23:28:55.736Z,98809.91
2018-08-11T23:31:24.288Z,98806.28
2018-08-11T23:33:52.987Z,98804.27
2018-08-11T23:36:22.453Z,98805.59
2018-08-11T23:38:50.955Z,98809.74
2018-08-11T23:41:19.438Z,98807.45
2018-08-11T23:43:47.991Z,98798.95
2018-08-11T23:46:16.448Z,98797.73
2018-08-11T23:48:44.915Z,98793.95
2018-08-11T23:51:13.434Z,98794.86
2018-08-11T23:54:44.745Z,98791.23
2018-08-11T23:57:13.249Z,98789.75
2018-08-11T23:59:41.712Z,98790.01
